Guatemala City, Guatemala
Current Conditions -  °F | °C
As of 3:00 PM on Tuesday 27 Jan 2015 (Local Time) from MGGT Reporting Station
Clear Clear  
Wind Chill: 21°   Ceiling: Unl
Heat Index: 21°   Visibility: 6mi
Dew Point: 20°   Wind: 18mph
Humidity: 94%   Direction: 360°N
Pressure: 30.27"   Gusts: NA
Location:  14.58°N, 90.52°W
Report Text: MGGT 272100Z 36016KT CAVOK 21/20 Q1025 A3027
Loading
Personal Weather Stations






























Interactive Weather Map New forecast layout! Learn more

10-Day Weather Forecast

Advertisements
Track Severe Weather on mobile